sensor_id;sensor_type;location;lat;lon;timestamp;P1;durP1;ratioP1;P2;durP2;ratioP2
51764;SDS011;37835;53.256;6.456;2023-07-24T00:00:27;9.75;;;6.05;;
51764;SDS011;37835;53.256;6.456;2023-07-24T00:02:53;11.43;;;5.78;;
51764;SDS011;37835;53.256;6.456;2023-07-24T00:05:19;9.10;;;5.70;;
51764;SDS011;37835;53.256;6.456;2023-07-24T00:07:44;8.23;;;5.80;;
51764;SDS011;37835;53.256;6.456;2023-07-24T00:10:10;12.90;;;5.97;;
51764;SDS011;37835;53.256;6.456;2023-07-24T00:12:35;11.10;;;5.95;;
51764;SDS011;37835;53.256;6.456;2023-07-24T00:15:02;8.00;;;5.57;;
51764;SDS011;37835;53.256;6.456;2023-07-24T00:17:27;12.07;;;5.70;;
51764;SDS011;37835;53.256;6.456;2023-07-24T00:19:53;8.77;;;5.45;;
51764;SDS011;37835;53.256;6.456;2023-07-24T00:22:18;9.27;;;5.25;;
51764;SDS011;37835;53.256;6.456;2023-07-24T00:24:44;8.52;;;5.10;;
51764;SDS011;37835;53.256;6.456;2023-07-24T00:27:09;12.52;;;5.40;;
51764;SDS011;37835;53.256;6.456;2023-07-24T00:29:35;10.63;;;6.03;;
51764;SDS011;37835;53.256;6.456;2023-07-24T00:32:01;8.65;;;5.22;;
51764;SDS011;37835;53.256;6.456;2023-07-24T00:34:26;9.77;;;5.18;;
51764;SDS011;37835;53.256;6.456;2023-07-24T00:36:52;11.60;;;5.18;;
51764;SDS011;37835;53.256;6.456;2023-07-24T00:39:17;11.18;;;6.00;;
51764;SDS011;37835;53.256;6.456;2023-07-24T00:41:43;8.77;;;5.13;;
51764;SDS011;37835;53.256;6.456;2023-07-24T00:44:08;13.05;;;6.00;;
51764;SDS011;37835;53.256;6.456;2023-07-24T00:46:34;10.27;;;5.90;;
51764;SDS011;37835;53.256;6.456;2023-07-24T00:49:00;11.88;;;4.88;;
51764;SDS011;37835;53.256;6.456;2023-07-24T00:51:27;8.70;;;5.20;;
51764;SDS011;37835;53.256;6.456;2023-07-24T00:54:00;14.05;;;5.15;;
51764;SDS011;37835;53.256;6.456;2023-07-24T00:56:28;8.93;;;5.03;;
51764;SDS011;37835;53.256;6.456;2023-07-24T00:58:55;10.05;;;4.88;;
51764;SDS011;37835;53.256;6.456;2023-07-24T01:01:21;11.20;;;5.68;;
51764;SDS011;37835;53.256;6.456;2023-07-24T01:03:47;10.77;;;5.70;;
51764;SDS011;37835;53.256;6.456;2023-07-24T01:06:14;12.02;;;5.88;;
51764;SDS011;37835;53.256;6.456;2023-07-24T01:08:39;11.60;;;5.72;;
51764;SDS011;37835;53.256;6.456;2023-07-24T01:11:49;10.32;;;6.00;;
51764;SDS011;37835;53.256;6.456;2023-07-24T01:14:09;12.20;;;5.63;;
51764;SDS011;37835;53.256;6.456;2023-07-24T01:16:39;10.75;;;5.93;;
51764;SDS011;37835;53.256;6.456;2023-07-24T01:19:11;11.30;;;5.35;;
51764;SDS011;37835;53.256;6.456;2023-07-24T01:21:49;10.73;;;5.78;;
51764;SDS011;37835;53.256;6.456;2023-07-24T01:27:26;11.00;;;6.18;;
51764;SDS011;37835;53.256;6.456;2023-07-24T01:29:52;9.45;;;6.22;;
51764;SDS011;37835;53.256;6.456;2023-07-24T01:32:20;10.38;;;6.00;;
51764;SDS011;37835;53.256;6.456;2023-07-24T01:34:46;12.52;;;6.07;;
51764;SDS011;37835;53.256;6.456;2023-07-24T01:37:12;11.40;;;5.70;;
51764;SDS011;37835;53.256;6.456;2023-07-24T01:39:40;9.30;;;5.75;;
51764;SDS011;37835;53.256;6.456;2023-07-24T01:42:06;8.60;;;5.65;;
51764;SDS011;37835;53.256;6.456;2023-07-24T01:44:33;11.13;;;5.93;;
51764;SDS011;37835;53.256;6.456;2023-07-24T01:46:58;13.23;;;6.95;;
51764;SDS011;37835;53.256;6.456;2023-07-24T01:49:24;11.98;;;6.43;;
51764;SDS011;37835;53.256;6.456;2023-07-24T01:51:49;18.95;;;6.90;;
51764;SDS011;37835;53.256;6.456;2023-07-24T01:54:15;10.07;;;5.95;;
51764;SDS011;37835;53.256;6.456;2023-07-24T01:56:40;13.70;;;6.97;;
51764;SDS011;37835;53.256;6.456;2023-07-24T01:59:06;11.18;;;6.95;;
51764;SDS011;37835;53.256;6.456;2023-07-24T02:01:32;10.32;;;7.18;;
51764;SDS011;37835;53.256;6.456;2023-07-24T02:03:57;9.73;;;6.50;;
51764;SDS011;37835;53.256;6.456;2023-07-24T02:06:23;10.40;;;6.78;;
51764;SDS011;37835;53.256;6.456;2023-07-24T02:08:48;10.43;;;7.35;;
51764;SDS011;37835;53.256;6.456;2023-07-24T02:11:16;13.77;;;7.63;;
51764;SDS011;37835;53.256;6.456;2023-07-24T02:13:45;12.77;;;6.97;;
51764;SDS011;37835;53.256;6.456;2023-07-24T02:16:12;17.45;;;8.15;;
51764;SDS011;37835;53.256;6.456;2023-07-24T02:18:38;10.30;;;8.07;;
51764;SDS011;37835;53.256;6.456;2023-07-24T02:21:06;12.38;;;8.60;;
51764;SDS011;37835;53.256;6.456;2023-07-24T02:23:32;15.70;;;9.57;;
51764;SDS011;37835;53.256;6.456;2023-07-24T02:25:57;12.55;;;8.75;;
51764;SDS011;37835;53.256;6.456;2023-07-24T02:28:23;16.55;;;9.98;;
51764;SDS011;37835;53.256;6.456;2023-07-24T02:30:49;11.60;;;9.32;;
51764;SDS011;37835;53.256;6.456;2023-07-24T02:33:16;14.88;;;9.73;;
51764;SDS011;37835;53.256;6.456;2023-07-24T02:35:42;15.70;;;10.15;;
51764;SDS011;37835;53.256;6.456;2023-07-24T02:38:08;16.25;;;10.65;;
51764;SDS011;37835;53.256;6.456;2023-07-24T02:40:34;18.88;;;10.75;;
51764;SDS011;37835;53.256;6.456;2023-07-24T02:43:01;13.98;;;10.77;;
51764;SDS011;37835;53.256;6.456;2023-07-24T02:45:26;13.32;;;11.13;;
51764;SDS011;37835;53.256;6.456;2023-07-24T02:47:52;16.65;;;11.82;;
51764;SDS011;37835;53.256;6.456;2023-07-24T02:50:18;15.80;;;10.82;;
51764;SDS011;37835;53.256;6.456;2023-07-24T02:52:43;13.88;;;10.57;;
51764;SDS011;37835;53.256;6.456;2023-07-24T02:55:09;14.88;;;12.25;;
51764;SDS011;37835;53.256;6.456;2023-07-24T02:57:34;16.08;;;11.60;;
51764;SDS011;37835;53.256;6.456;2023-07-24T03:00:00;16.08;;;12.27;;
51764;SDS011;37835;53.256;6.456;2023-07-24T03:02:26;14.30;;;10.82;;
51764;SDS011;37835;53.256;6.456;2023-07-24T03:04:51;18.10;;;12.63;;
51764;SDS011;37835;53.256;6.456;2023-07-24T03:07:17;17.02;;;12.40;;
51764;SDS011;37835;53.256;6.456;2023-07-24T03:09:42;16.02;;;11.75;;
51764;SDS011;37835;53.256;6.456;2023-07-24T03:12:08;18.40;;;11.68;;
51764;SDS011;37835;53.256;6.456;2023-07-24T03:14:34;16.92;;;12.65;;
51764;SDS011;37835;53.256;6.456;2023-07-24T03:16:59;14.05;;;11.30;;
51764;SDS011;37835;53.256;6.456;2023-07-24T03:19:25;16.30;;;11.63;;
51764;SDS011;37835;53.256;6.456;2023-07-24T03:21:50;17.65;;;11.43;;
51764;SDS011;37835;53.256;6.456;2023-07-24T03:24:16;17.67;;;11.10;;
51764;SDS011;37835;53.256;6.456;2023-07-24T03:26:42;15.73;;;11.70;;
51764;SDS011;37835;53.256;6.456;2023-07-24T03:29:08;15.82;;;10.27;;
51764;SDS011;37835;53.256;6.456;2023-07-24T03:31:33;17.92;;;10.38;;
51764;SDS011;37835;53.256;6.456;2023-07-24T03:33:59;15.40;;;10.70;;
51764;SDS011;37835;53.256;6.456;2023-07-24T03:36:24;19.05;;;10.90;;
51764;SDS011;37835;53.256;6.456;2023-07-24T03:38:50;15.00;;;10.60;;
51764;SDS011;37835;53.256;6.456;2023-07-24T03:41:15;15.43;;;11.35;;
51764;SDS011;37835;53.256;6.456;2023-07-24T03:43:41;20.63;;;10.65;;
51764;SDS011;37835;53.256;6.456;2023-07-24T03:46:07;15.57;;;10.93;;
51764;SDS011;37835;53.256;6.456;2023-07-24T03:48:32;12.32;;;8.93;;
51764;SDS011;37835;53.256;6.456;2023-07-24T03:51:00;12.75;;;9.60;;
51764;SDS011;37835;53.256;6.456;2023-07-24T03:53:26;12.70;;;9.32;;
51764;SDS011;37835;53.256;6.456;2023-07-24T03:55:52;14.93;;;8.98;;
51764;SDS011;37835;53.256;6.456;2023-07-24T03:58:18;16.50;;;8.75;;
51764;SDS011;37835;53.256;6.456;2023-07-24T04:00:43;11.57;;;8.65;;
51764;SDS011;37835;53.256;6.456;2023-07-24T04:03:09;14.15;;;8.10;;
51764;SDS011;37835;53.256;6.456;2023-07-24T04:05:35;16.13;;;8.52;;
51764;SDS011;37835;53.256;6.456;2023-07-24T04:08:01;11.60;;;7.32;;
51764;SDS011;37835;53.256;6.456;2023-07-24T04:10:27;15.00;;;8.00;;
51764;SDS011;37835;53.256;6.456;2023-07-24T04:12:53;10.20;;;7.72;;
51764;SDS011;37835;53.256;6.456;2023-07-24T04:15:19;15.52;;;7.75;;
51764;SDS011;37835;53.256;6.456;2023-07-24T04:17:45;13.40;;;8.05;;
51764;SDS011;37835;53.256;6.456;2023-07-24T04:20:10;11.73;;;7.63;;
51764;SDS011;37835;53.256;6.456;2023-07-24T04:22:36;11.35;;;7.80;;
51764;SDS011;37835;53.256;6.456;2023-07-24T04:25:02;16.88;;;8.20;;
51764;SDS011;37835;53.256;6.456;2023-07-24T04:27:27;16.38;;;7.97;;
51764;SDS011;37835;53.256;6.456;2023-07-24T04:29:53;14.02;;;7.15;;
51764;SDS011;37835;53.256;6.456;2023-07-24T04:32:19;13.25;;;7.60;;
51764;SDS011;37835;53.256;6.456;2023-07-24T04:34:44;13.68;;;7.40;;
51764;SDS011;37835;53.256;6.456;2023-07-24T04:37:10;13.88;;;7.47;;
51764;SDS011;37835;53.256;6.456;2023-07-24T04:39:37;12.48;;;7.85;;
51764;SDS011;37835;53.256;6.456;2023-07-24T04:42:04;12.50;;;7.50;;
51764;SDS011;37835;53.256;6.456;2023-07-24T04:44:29;10.88;;;7.43;;
51764;SDS011;37835;53.256;6.456;2023-07-24T04:46:56;12.68;;;7.90;;
51764;SDS011;37835;53.256;6.456;2023-07-24T04:49:22;11.52;;;7.75;;
51764;SDS011;37835;53.256;6.456;2023-07-24T04:51:49;12.93;;;8.63;;
51764;SDS011;37835;53.256;6.456;2023-07-24T04:54:15;11.43;;;8.30;;
51764;SDS011;37835;53.256;6.456;2023-07-24T04:56:41;12.68;;;8.25;;
51764;SDS011;37835;53.256;6.456;2023-07-24T04:59:06;14.10;;;8.80;;
51764;SDS011;37835;53.256;6.456;2023-07-24T05:01:32;11.90;;;7.85;;
51764;SDS011;37835;53.256;6.456;2023-07-24T05:03:57;12.50;;;8.35;;
51764;SDS011;37835;53.256;6.456;2023-07-24T05:06:23;13.98;;;8.82;;
51764;SDS011;37835;53.256;6.456;2023-07-24T05:08:49;15.15;;;8.80;;
51764;SDS011;37835;53.256;6.456;2023-07-24T05:11:14;12.32;;;9.05;;
51764;SDS011;37835;53.256;6.456;2023-07-24T05:13:40;12.38;;;8.80;;
51764;SDS011;37835;53.256;6.456;2023-07-24T05:16:05;11.98;;;9.48;;
51764;SDS011;37835;53.256;6.456;2023-07-24T05:18:31;13.95;;;9.48;;
51764;SDS011;37835;53.256;6.456;2023-07-24T05:20:56;12.75;;;9.63;;
51764;SDS011;37835;53.256;6.456;2023-07-24T05:23:22;14.10;;;9.40;;
51764;SDS011;37835;53.256;6.456;2023-07-24T05:25:55;15.48;;;10.15;;
51764;SDS011;37835;53.256;6.456;2023-07-24T05:28:22;14.23;;;8.93;;
51764;SDS011;37835;53.256;6.456;2023-07-24T05:30:48;15.07;;;9.75;;
51764;SDS011;37835;53.256;6.456;2023-07-24T05:33:13;13.07;;;9.55;;
51764;SDS011;37835;53.256;6.456;2023-07-24T05:35:39;13.57;;;10.25;;
51764;SDS011;37835;53.256;6.456;2023-07-24T05:38:04;14.13;;;9.82;;
51764;SDS011;37835;53.256;6.456;2023-07-24T05:40:30;16.38;;;9.82;;
51764;SDS011;37835;53.256;6.456;2023-07-24T05:42:56;11.50;;;10.07;;
51764;SDS011;37835;53.256;6.456;2023-07-24T05:45:21;13.82;;;10.73;;
51764;SDS011;37835;53.256;6.456;2023-07-24T05:47:47;12.52;;;9.70;;
51764;SDS011;37835;53.256;6.456;2023-07-24T05:50:12;11.90;;;10.55;;
51764;SDS011;37835;53.256;6.456;2023-07-24T05:52:40;13.38;;;9.90;;
51764;SDS011;37835;53.256;6.456;2023-07-24T05:55:06;14.15;;;10.85;;
51764;SDS011;37835;53.256;6.456;2023-07-24T05:57:32;15.35;;;9.80;;
51764;SDS011;37835;53.256;6.456;2023-07-24T05:59:58;13.45;;;9.77;;
51764;SDS011;37835;53.256;6.456;2023-07-24T06:02:23;16.20;;;10.27;;
51764;SDS011;37835;53.256;6.456;2023-07-24T06:04:49;14.48;;;11.27;;
51764;SDS011;37835;53.256;6.456;2023-07-24T06:07:14;13.48;;;9.63;;
51764;SDS011;37835;53.256;6.456;2023-07-24T06:09:40;15.05;;;10.82;;
51764;SDS011;37835;53.256;6.456;2023-07-24T06:12:06;15.93;;;10.55;;
51764;SDS011;37835;53.256;6.456;2023-07-24T06:14:31;14.68;;;10.15;;
51764;SDS011;37835;53.256;6.456;2023-07-24T06:16:57;13.05;;;10.35;;
51764;SDS011;37835;53.256;6.456;2023-07-24T06:19:23;12.55;;;9.85;;
51764;SDS011;37835;53.256;6.456;2023-07-24T06:21:48;13.20;;;10.82;;
51764;SDS011;37835;53.256;6.456;2023-07-24T06:24:14;14.23;;;10.52;;
51764;SDS011;37835;53.256;6.456;2023-07-24T06:26:39;12.18;;;10.20;;
51764;SDS011;37835;53.256;6.456;2023-07-24T06:29:05;15.75;;;10.57;;
51764;SDS011;37835;53.256;6.456;2023-07-24T06:31:30;12.27;;;9.88;;
51764;SDS011;37835;53.256;6.456;2023-07-24T06:33:56;13.82;;;9.82;;
51764;SDS011;37835;53.256;6.456;2023-07-24T06:36:22;17.00;;;9.82;;
51764;SDS011;37835;53.256;6.456;2023-07-24T06:38:47;18.98;;;10.82;;
51764;SDS011;37835;53.256;6.456;2023-07-24T06:41:16;14.68;;;9.70;;
51764;SDS011;37835;53.256;6.456;2023-07-24T06:43:41;13.88;;;9.55;;
51764;SDS011;37835;53.256;6.456;2023-07-24T06:46:07;16.55;;;9.10;;
51764;SDS011;37835;53.256;6.456;2023-07-24T06:48:33;18.52;;;9.90;;
51764;SDS011;37835;53.256;6.456;2023-07-24T06:50:58;16.45;;;9.30;;
51764;SDS011;37835;53.256;6.456;2023-07-24T06:53:24;12.38;;;9.80;;
51764;SDS011;37835;53.256;6.456;2023-07-24T06:55:50;15.48;;;8.82;;
51764;SDS011;37835;53.256;6.456;2023-07-24T06:58:15;14.57;;;9.55;;
51764;SDS011;37835;53.256;6.456;2023-07-24T07:00:41;14.90;;;9.48;;
51764;SDS011;37835;53.256;6.456;2023-07-24T07:03:06;11.82;;;9.07;;
51764;SDS011;37835;53.256;6.456;2023-07-24T07:05:32;13.25;;;8.57;;
51764;SDS011;37835;53.256;6.456;2023-07-24T07:07:57;15.27;;;9.75;;
51764;SDS011;37835;53.256;6.456;2023-07-24T07:10:23;14.18;;;9.20;;
51764;SDS011;37835;53.256;6.456;2023-07-24T07:12:49;13.32;;;9.27;;
51764;SDS011;37835;53.256;6.456;2023-07-24T07:15:15;15.80;;;9.13;;
51764;SDS011;37835;53.256;6.456;2023-07-24T07:17:41;12.52;;;8.75;;
51764;SDS011;37835;53.256;6.456;2023-07-24T07:20:07;18.90;;;9.85;;
51764;SDS011;37835;53.256;6.456;2023-07-24T07:22:33;16.48;;;8.60;;
51764;SDS011;37835;53.256;6.456;2023-07-24T07:24:58;14.38;;;8.07;;
51764;SDS011;37835;53.256;6.456;2023-07-24T07:27:24;16.25;;;8.73;;
51764;SDS011;37835;53.256;6.456;2023-07-24T07:29:49;14.15;;;8.43;;
51764;SDS011;37835;53.256;6.456;2023-07-24T07:32:15;16.27;;;8.82;;
51764;SDS011;37835;53.256;6.456;2023-07-24T07:34:41;14.77;;;8.77;;
51764;SDS011;37835;53.256;6.456;2023-07-24T07:37:07;15.00;;;8.52;;
51764;SDS011;37835;53.256;6.456;2023-07-24T07:39:32;12.82;;;8.57;;
51764;SDS011;37835;53.256;6.456;2023-07-24T07:41:58;14.55;;;8.55;;
51764;SDS011;37835;53.256;6.456;2023-07-24T07:44:24;14.57;;;8.57;;
51764;SDS011;37835;53.256;6.456;2023-07-24T07:46:49;14.13;;;7.85;;
51764;SDS011;37835;53.256;6.456;2023-07-24T07:49:15;18.05;;;8.32;;
51764;SDS011;37835;53.256;6.456;2023-07-24T07:51:40;18.55;;;8.75;;
51764;SDS011;37835;53.256;6.456;2023-07-24T07:54:06;17.90;;;8.20;;
51764;SDS011;37835;53.256;6.456;2023-07-24T07:56:31;14.07;;;7.60;;
51764;SDS011;37835;53.256;6.456;2023-07-24T07:58:57;19.95;;;8.95;;
51764;SDS011;37835;53.256;6.456;2023-07-24T08:01:22;16.60;;;7.55;;
51764;SDS011;37835;53.256;6.456;2023-07-24T08:03:48;12.93;;;8.15;;
51764;SDS011;37835;53.256;6.456;2023-07-24T08:06:14;14.02;;;7.63;;
51764;SDS011;37835;53.256;6.456;2023-07-24T08:08:39;15.05;;;8.05;;
51764;SDS011;37835;53.256;6.456;2023-07-24T08:11:05;13.98;;;7.57;;
51764;SDS011;37835;53.256;6.456;2023-07-24T08:13:32;14.57;;;7.75;;
51764;SDS011;37835;53.256;6.456;2023-07-24T08:15:58;14.27;;;7.32;;
51764;SDS011;37835;53.256;6.456;2023-07-24T08:18:25;14.15;;;7.25;;
51764;SDS011;37835;53.256;6.456;2023-07-24T08:20:50;15.35;;;7.72;;
51764;SDS011;37835;53.256;6.456;2023-07-24T08:23:16;13.10;;;7.22;;
51764;SDS011;37835;53.256;6.456;2023-07-24T08:25:54;17.20;;;7.43;;
51764;SDS011;37835;53.256;6.456;2023-07-24T08:28:20;15.73;;;7.40;;
51764;SDS011;37835;53.256;6.456;2023-07-24T08:30:50;15.55;;;6.65;;
51764;SDS011;37835;53.256;6.456;2023-07-24T08:33:21;12.50;;;6.10;;
51764;SDS011;37835;53.256;6.456;2023-07-24T08:35:47;13.40;;;6.60;;
51764;SDS011;37835;53.256;6.456;2023-07-24T08:38:12;10.07;;;5.95;;
51764;SDS011;37835;53.256;6.456;2023-07-24T08:40:38;13.60;;;5.78;;
51764;SDS011;37835;53.256;6.456;2023-07-24T08:43:04;16.83;;;6.78;;
51764;SDS011;37835;53.256;6.456;2023-07-24T08:45:30;12.10;;;6.50;;
51764;SDS011;37835;53.256;6.456;2023-07-24T08:47:56;13.88;;;6.65;;
51764;SDS011;37835;53.256;6.456;2023-07-24T08:50:23;15.20;;;6.70;;
51764;SDS011;37835;53.256;6.456;2023-07-24T08:52:50;9.60;;;5.70;;
51764;SDS011;37835;53.256;6.456;2023-07-24T08:55:16;11.38;;;6.00;;
51764;SDS011;37835;53.256;6.456;2023-07-24T08:57:41;10.07;;;5.82;;
51764;SDS011;37835;53.256;6.456;2023-07-24T09:00:07;13.45;;;5.85;;
51764;SDS011;37835;53.256;6.456;2023-07-24T09:02:33;11.85;;;6.10;;
51764;SDS011;37835;53.256;6.456;2023-07-24T09:05:00;13.05;;;6.38;;
51764;SDS011;37835;53.256;6.456;2023-07-24T09:07:26;13.45;;;6.35;;
51764;SDS011;37835;53.256;6.456;2023-07-24T09:09:52;11.35;;;5.88;;
51764;SDS011;37835;53.256;6.456;2023-07-24T09:12:18;11.32;;;6.22;;
51764;SDS011;37835;53.256;6.456;2023-07-24T09:14:43;11.93;;;6.20;;
51764;SDS011;37835;53.256;6.456;2023-07-24T09:17:10;11.77;;;5.90;;
51764;SDS011;37835;53.256;6.456;2023-07-24T09:19:36;13.70;;;6.40;;
51764;SDS011;37835;53.256;6.456;2023-07-24T09:22:10;14.00;;;6.10;;
51764;SDS011;37835;53.256;6.456;2023-07-24T09:24:48;14.18;;;6.65;;
51764;SDS011;37835;53.256;6.456;2023-07-24T09:27:18;17.17;;;6.53;;
51764;SDS011;37835;53.256;6.456;2023-07-24T09:29:43;10.98;;;5.97;;
51764;SDS011;37835;53.256;6.456;2023-07-24T09:32:22;13.45;;;5.50;;
51764;SDS011;37835;53.256;6.456;2023-07-24T09:34:50;11.52;;;4.70;;
51764;SDS011;37835;53.256;6.456;2023-07-24T09:40:11;11.45;;;5.72;;
51764;SDS011;37835;53.256;6.456;2023-07-24T09:42:39;12.68;;;4.60;;
51764;SDS011;37835;53.256;6.456;2023-07-24T09:45:08;11.20;;;4.70;;
51764;SDS011;37835;53.256;6.456;2023-07-24T09:47:34;10.80;;;5.00;;
51764;SDS011;37835;53.256;6.456;2023-07-24T09:50:02;13.18;;;4.72;;
51764;SDS011;37835;53.256;6.456;2023-07-24T09:52:29;8.35;;;4.47;;
51764;SDS011;37835;53.256;6.456;2023-07-24T09:55:07;7.65;;;4.65;;
51764;SDS011;37835;53.256;6.456;2023-07-24T09:57:40;11.82;;;4.90;;
51764;SDS011;37835;53.256;6.456;2023-07-24T10:00:09;8.63;;;4.63;;
51764;SDS011;37835;53.256;6.456;2023-07-24T10:02:36;10.45;;;4.90;;
51764;SDS011;37835;53.256;6.456;2023-07-24T10:05:02;8.18;;;4.65;;
51764;SDS011;37835;53.256;6.456;2023-07-24T10:07:28;7.72;;;4.72;;
51764;SDS011;37835;53.256;6.456;2023-07-24T10:09:54;7.88;;;4.90;;
51764;SDS011;37835;53.256;6.456;2023-07-24T10:12:21;9.07;;;4.65;;
51764;SDS011;37835;53.256;6.456;2023-07-24T10:14:47;8.75;;;5.15;;
51764;SDS011;37835;53.256;6.456;2023-07-24T10:17:14;9.40;;;5.43;;
51764;SDS011;37835;53.256;6.456;2023-07-24T10:19:40;8.93;;;4.45;;
51764;SDS011;37835;53.256;6.456;2023-07-24T10:22:08;8.98;;;4.13;;
51764;SDS011;37835;53.256;6.456;2023-07-24T10:24:35;11.35;;;4.32;;
51764;SDS011;37835;53.256;6.456;2023-07-24T10:27:02;7.03;;;4.57;;
51764;SDS011;37835;53.256;6.456;2023-07-24T10:29:28;10.07;;;4.78;;
51764;SDS011;37835;53.256;6.456;2023-07-24T10:31:58;6.78;;;4.00;;
51764;SDS011;37835;53.256;6.456;2023-07-24T10:34:24;5.78;;;4.10;;
51764;SDS011;37835;53.256;6.456;2023-07-24T10:36:50;4.68;;;3.33;;
51764;SDS011;37835;53.256;6.456;2023-07-24T10:39:16;3.83;;;2.95;;
51764;SDS011;37835;53.256;6.456;2023-07-24T10:41:45;3.17;;;2.60;;
51764;SDS011;37835;53.256;6.456;2023-07-24T10:44:11;5.38;;;3.38;;
51764;SDS011;37835;53.256;6.456;2023-07-24T10:46:38;4.28;;;3.10;;
51764;SDS011;37835;53.256;6.456;2023-07-24T10:49:05;6.38;;;4.07;;
51764;SDS011;37835;53.256;6.456;2023-07-24T10:51:30;4.55;;;3.80;;
51764;SDS011;37835;53.256;6.456;2023-07-24T10:54:02;8.15;;;4.13;;
51764;SDS011;37835;53.256;6.456;2023-07-24T10:56:28;7.30;;;4.00;;
51764;SDS011;37835;53.256;6.456;2023-07-24T10:58:54;10.15;;;5.35;;
51764;SDS011;37835;53.256;6.456;2023-07-24T11:01:20;10.80;;;5.68;;
51764;SDS011;37835;53.256;6.456;2023-07-24T11:03:46;8.95;;;5.68;;
51764;SDS011;37835;53.256;6.456;2023-07-24T11:06:13;12.10;;;6.95;;
51764;SDS011;37835;53.256;6.456;2023-07-24T11:08:40;9.02;;;6.60;;
51764;SDS011;37835;53.256;6.456;2023-07-24T11:11:05;9.55;;;6.85;;
51764;SDS011;37835;53.256;6.456;2023-07-24T11:13:32;10.23;;;7.00;;
51764;SDS011;37835;53.256;6.456;2023-07-24T11:16:03;13.45;;;7.90;;
51764;SDS011;37835;53.256;6.456;2023-07-24T11:18:30;8.57;;;7.00;;
51764;SDS011;37835;53.256;6.456;2023-07-24T11:20:55;10.57;;;6.57;;
51764;SDS011;37835;53.256;6.456;2023-07-24T11:23:22;10.10;;;6.97;;
51764;SDS011;37835;53.256;6.456;2023-07-24T11:25:51;11.93;;;7.97;;
51764;SDS011;37835;53.256;6.456;2023-07-24T11:28:18;9.70;;;7.00;;
51764;SDS011;37835;53.256;6.456;2023-07-24T11:30:43;9.63;;;6.88;;
51764;SDS011;37835;53.256;6.456;2023-07-24T11:33:10;10.48;;;6.53;;
51764;SDS011;37835;53.256;6.456;2023-07-24T11:35:37;10.68;;;6.72;;
51764;SDS011;37835;53.256;6.456;2023-07-24T11:38:05;10.27;;;6.68;;
51764;SDS011;37835;53.256;6.456;2023-07-24T11:40:43;14.57;;;7.95;;
51764;SDS011;37835;53.256;6.456;2023-07-24T11:43:19;11.65;;;8.27;;
51764;SDS011;37835;53.256;6.456;2023-07-24T11:45:47;11.52;;;6.35;;
51764;SDS011;37835;53.256;6.456;2023-07-24T11:48:20;12.20;;;6.53;;
51764;SDS011;37835;53.256;6.456;2023-07-24T11:50:50;8.57;;;6.28;;
51764;SDS011;37835;53.256;6.456;2023-07-24T11:53:25;10.02;;;6.45;;
51764;SDS011;37835;53.256;6.456;2023-07-24T11:55:52;7.57;;;5.75;;
51764;SDS011;37835;53.256;6.456;2023-07-24T11:58:18;6.78;;;5.25;;
51764;SDS011;37835;53.256;6.456;2023-07-24T12:00:45;7.93;;;5.22;;
51764;SDS011;37835;53.256;6.456;2023-07-24T12:03:12;6.10;;;5.55;;
51764;SDS011;37835;53.256;6.456;2023-07-24T12:05:42;6.68;;;5.43;;
51764;SDS011;37835;53.256;6.456;2023-07-24T12:08:09;9.30;;;6.20;;
51764;SDS011;37835;53.256;6.456;2023-07-24T12:10:36;8.25;;;5.57;;
51764;SDS011;37835;53.256;6.456;2023-07-24T12:13:02;6.53;;;5.65;;
51764;SDS011;37835;53.256;6.456;2023-07-24T12:15:28;11.48;;;7.22;;
51764;SDS011;37835;53.256;6.456;2023-07-24T12:17:54;7.55;;;6.20;;
51764;SDS011;37835;53.256;6.456;2023-07-24T12:20:21;8.38;;;6.18;;
51764;SDS011;37835;53.256;6.456;2023-07-24T12:22:47;8.23;;;6.22;;
51764;SDS011;37835;53.256;6.456;2023-07-24T12:25:13;7.85;;;6.47;;
51764;SDS011;37835;53.256;6.456;2023-07-24T12:27:39;7.45;;;6.65;;
51764;SDS011;37835;53.256;6.456;2023-07-24T12:30:06;8.48;;;6.97;;
51764;SDS011;37835;53.256;6.456;2023-07-24T12:32:32;11.35;;;7.63;;
51764;SDS011;37835;53.256;6.456;2023-07-24T12:34:57;8.10;;;5.65;;
51764;SDS011;37835;53.256;6.456;2023-07-24T12:37:23;5.88;;;4.90;;
51764;SDS011;37835;53.256;6.456;2023-07-24T12:39:49;5.68;;;4.70;;
51764;SDS011;37835;53.256;6.456;2023-07-24T12:42:14;5.15;;;4.28;;
51764;SDS011;37835;53.256;6.456;2023-07-24T12:44:41;5.15;;;4.65;;
51764;SDS011;37835;53.256;6.456;2023-07-24T12:47:07;5.07;;;4.57;;
51764;SDS011;37835;53.256;6.456;2023-07-24T12:49:33;5.00;;;4.50;;
51764;SDS011;37835;53.256;6.456;2023-07-24T12:51:59;4.82;;;4.43;;
51764;SDS011;37835;53.256;6.456;2023-07-24T12:54:24;5.25;;;4.78;;
51764;SDS011;37835;53.256;6.456;2023-07-24T12:56:50;5.85;;;4.55;;
51764;SDS011;37835;53.256;6.456;2023-07-24T12:59:17;4.07;;;3.60;;
51764;SDS011;37835;53.256;6.456;2023-07-24T13:01:42;3.40;;;3.10;;
51764;SDS011;37835;53.256;6.456;2023-07-24T13:04:09;3.85;;;3.15;;
51764;SDS011;37835;53.256;6.456;2023-07-24T13:06:34;3.08;;;2.88;;
51764;SDS011;37835;53.256;6.456;2023-07-24T13:09:00;3.78;;;2.15;;
51764;SDS011;37835;53.256;6.456;2023-07-24T13:11:25;4.47;;;1.30;;
51764;SDS011;37835;53.256;6.456;2023-07-24T13:13:53;1.63;;;1.10;;
51764;SDS011;37835;53.256;6.456;2023-07-24T13:16:19;5.20;;;1.23;;
51764;SDS011;37835;53.256;6.456;2023-07-24T13:18:45;2.00;;;1.17;;
51764;SDS011;37835;53.256;6.456;2023-07-24T13:21:10;1.88;;;1.27;;
51764;SDS011;37835;53.256;6.456;2023-07-24T13:23:36;1.45;;;1.23;;
51764;SDS011;37835;53.256;6.456;2023-07-24T13:26:02;3.55;;;1.50;;
51764;SDS011;37835;53.256;6.456;2023-07-24T13:28:28;4.45;;;1.60;;
51764;SDS011;37835;53.256;6.456;2023-07-24T13:30:53;3.55;;;1.40;;
51764;SDS011;37835;53.256;6.456;2023-07-24T13:33:19;6.85;;;1.90;;
51764;SDS011;37835;53.256;6.456;2023-07-24T13:35:46;6.53;;;2.00;;
51764;SDS011;37835;53.256;6.456;2023-07-24T13:38:12;5.93;;;1.45;;
51764;SDS011;37835;53.256;6.456;2023-07-24T13:40:39;8.05;;;1.88;;
51764;SDS011;37835;53.256;6.456;2023-07-24T13:43:05;3.80;;;1.40;;
51764;SDS011;37835;53.256;6.456;2023-07-24T13:45:30;10.15;;;1.45;;
51764;SDS011;37835;53.256;6.456;2023-07-24T13:47:57;2.78;;;1.40;;
51764;SDS011;37835;53.256;6.456;2023-07-24T13:50:23;3.05;;;1.17;;
51764;SDS011;37835;53.256;6.456;2023-07-24T13:52:49;4.28;;;1.55;;
51764;SDS011;37835;53.256;6.456;2023-07-24T13:55:14;4.10;;;1.60;;
51764;SDS011;37835;53.256;6.456;2023-07-24T13:57:40;4.88;;;1.20;;
51764;SDS011;37835;53.256;6.456;2023-07-24T14:00:06;7.93;;;1.80;;
51764;SDS011;37835;53.256;6.456;2023-07-24T14:02:32;8.23;;;2.08;;
51764;SDS011;37835;53.256;6.456;2023-07-24T14:04:58;7.38;;;2.35;;
51764;SDS011;37835;53.256;6.456;2023-07-24T14:07:24;6.78;;;1.50;;
51764;SDS011;37835;53.256;6.456;2023-07-24T14:09:49;6.70;;;1.95;;
51764;SDS011;37835;53.256;6.456;2023-07-24T14:12:15;9.13;;;2.38;;
51764;SDS011;37835;53.256;6.456;2023-07-24T14:14:41;8.88;;;2.30;;
51764;SDS011;37835;53.256;6.456;2023-07-24T14:17:06;15.35;;;2.85;;
51764;SDS011;37835;53.256;6.456;2023-07-24T14:19:32;11.25;;;2.20;;
51764;SDS011;37835;53.256;6.456;2023-07-24T14:21:57;6.78;;;2.00;;
51764;SDS011;37835;53.256;6.456;2023-07-24T14:24:23;8.13;;;2.13;;
51764;SDS011;37835;53.256;6.456;2023-07-24T14:26:49;8.77;;;1.90;;
51764;SDS011;37835;53.256;6.456;2023-07-24T14:29:15;8.07;;;2.25;;
51764;SDS011;37835;53.256;6.456;2023-07-24T14:31:42;9.45;;;1.98;;
51764;SDS011;37835;53.256;6.456;2023-07-24T14:34:08;12.13;;;1.65;;
51764;SDS011;37835;53.256;6.456;2023-07-24T14:36:37;7.47;;;1.65;;